Weather at Campo di Volo Casalfiumanese

Public forecast

Using degrees Celsius for public forecast. Weather courtesy of forecast.io.

Closest aviation weather report (METAR) to Campo di Volo Casalfiumanese

Closest report is Forlì Airport, 19.9 nm (36.9 km) ESE. Retrieved 2022/07/04 12:50 UTC (12 minutes ago):

LIPK 041250Z 06010KT 9999 FEW040 35/17 Q1013

Closest aviation forecast (TAF) to Campo di Volo Casalfiumanese

Closest forecast is Forlì Airport, 19.9 nm (36.9 km) ESE. Retrieved 2022/07/04 12:00 UTC (1 hour ago):

TAF LIPK 041100Z 0412/0512 08010KT CAVOK BECMG 0417/0419 24007KT